createdAt,value
2022-09-25T00:01:31.121Z,14.87
2022-09-25T00:04:01.167Z,18.23
2022-09-25T00:06:30.833Z,11.80
2022-09-25T00:08:59.623Z,15.80
2022-09-25T00:11:31.377Z,13.47
2022-09-25T00:14:01.422Z,13.37
2022-09-25T00:16:32.986Z,13.27
2022-09-25T00:19:20.237Z,13.53
2022-09-25T00:21:53.260Z,13.37
2022-09-25T00:24:22.275Z,13.93
2022-09-25T00:26:50.612Z,12.37
2022-09-25T00:29:21.506Z,13.43
2022-09-25T00:31:49.740Z,19.53
2022-09-25T00:34:19.322Z,13.53
2022-09-25T00:36:48.593Z,15.40
2022-09-25T00:39:16.708Z,14.93
2022-09-25T00:41:45.222Z,14.97
2022-09-25T00:45:01.273Z,17.13
2022-09-25T00:47:43.027Z,16.57
2022-09-25T00:50:26.038Z,17.37
2022-09-25T00:52:58.958Z,17.80
2022-09-25T00:55:27.123Z,14.97
2022-09-25T00:57:58.698Z,13.80
2022-09-25T01:00:26.817Z,20.33
2022-09-25T01:02:57.582Z,16.17
2022-09-25T01:05:33.083Z,13.73
2022-09-25T01:08:06.163Z,17.77
2022-09-25T01:10:34.339Z,12.30
2022-09-25T01:13:03.107Z,15.13
2022-09-25T01:15:43.753Z,14.10
2022-09-25T01:18:26.981Z,18.87
2022-09-25T01:21:26.266Z,13.87
2022-09-25T01:24:40.934Z,12.63
2022-09-25T01:27:34.500Z,17.57
2022-09-25T01:30:11.027Z,18.90
2022-09-25T01:32:54.678Z,13.80
2022-09-25T01:35:40.374Z,13.00
2022-09-25T01:38:23.153Z,16.23
2022-09-25T01:41:01.953Z,16.03
2022-09-25T01:43:39.086Z,13.83
2022-09-25T01:46:16.503Z,14.23
2022-09-25T01:48:51.468Z,15.00
2022-09-25T01:51:28.554Z,15.40
2022-09-25T01:54:04.043Z,13.57
2022-09-25T01:56:38.940Z,15.07
2022-09-25T01:59:15.004Z,16.50
2022-09-25T02:01:47.720Z,18.27
2022-09-25T02:04:23.350Z,15.80
2022-09-25T02:06:55.142Z,16.63
2022-09-25T02:09:33.515Z,13.87
2022-09-25T02:12:10.415Z,16.87
2022-09-25T02:14:46.546Z,15.50
2022-09-25T02:17:37.548Z,17.67
2022-09-25T02:20:24.893Z,15.20
2022-09-25T02:22:56.427Z,16.30
2022-09-25T02:25:38.590Z,13.70
2022-09-25T02:28:06.854Z,22.33
2022-09-25T02:30:35.434Z,16.87
2022-09-25T02:33:05.204Z,15.00
2022-09-25T02:35:34.349Z,15.90
2022-09-25T02:38:02.570Z,14.57
2022-09-25T02:40:41.846Z,16.20
2022-09-25T02:43:24.744Z,14.57
2022-09-25T02:46:07.435Z,17.53
2022-09-25T02:48:53.228Z,12.77
2022-09-25T02:51:32.421Z,14.90
2022-09-25T02:54:10.455Z,14.07
2022-09-25T02:56:48.353Z,14.83
2022-09-25T02:59:27.812Z,13.27
2022-09-25T03:01:59.877Z,16.13
2022-09-25T03:04:34.841Z,12.90
2022-09-25T03:07:03.762Z,14.73
2022-09-25T03:09:36.682Z,16.40
2022-09-25T03:12:06.282Z,13.50
2022-09-25T03:14:34.496Z,14.47
2022-09-25T03:17:05.846Z,14.87
2022-09-25T03:19:35.825Z,14.13
2022-09-25T03:22:04.017Z,13.67
2022-09-25T03:24:32.392Z,13.60
2022-09-25T03:27:00.496Z,14.83
2022-09-25T03:29:29.933Z,15.03
2022-09-25T03:31:57.965Z,15.87
2022-09-25T03:34:26.072Z,18.80
2022-09-25T03:36:55.494Z,15.10
2022-09-25T03:39:23.900Z,12.43
2022-09-25T03:41:52.528Z,16.83
2022-09-25T03:44:20.651Z,16.33
2022-09-25T03:46:48.762Z,18.20
2022-09-25T03:49:16.898Z,17.97
2022-09-25T03:51:45.242Z,15.63
2022-09-25T03:54:14.984Z,16.67
2022-09-25T03:56:43.089Z,14.70
2022-09-25T03:59:11.200Z,15.47
2022-09-25T04:01:40.530Z,14.13
2022-09-25T04:04:08.712Z,18.60
2022-09-25T04:06:36.830Z,20.10
2022-09-25T04:09:05.166Z,19.30
2022-09-25T04:11:34.865Z,17.10
2022-09-25T04:14:03.106Z,14.23
2022-09-25T04:16:31.501Z,13.93
2022-09-25T04:18:59.697Z,14.70
2022-09-25T04:21:28.130Z,13.80
2022-09-25T04:24:10.118Z,14.27
2022-09-25T04:26:39.641Z,12.87
2022-09-25T04:29:07.862Z,17.33
2022-09-25T04:31:36.020Z,13.07
2022-09-25T04:34:04.063Z,14.57
2022-09-25T04:36:32.326Z,17.63
2022-09-25T04:39:00.428Z,13.70
2022-09-25T04:41:28.523Z,12.53
2022-09-25T04:43:57.994Z,14.40
2022-09-25T04:46:26.187Z,14.03
2022-09-25T04:48:54.299Z,14.30
2022-09-25T04:51:22.373Z,15.53
2022-09-25T04:53:50.757Z,13.20
2022-09-25T04:56:18.815Z,13.73
2022-09-25T04:58:49.349Z,13.10
2022-09-25T05:01:21.419Z,13.47
2022-09-25T05:03:53.393Z,12.40
2022-09-25T05:06:22.499Z,13.77
2022-09-25T05:08:50.945Z,13.57
2022-09-25T05:11:19.695Z,16.47
2022-09-25T05:13:51.686Z,15.40
2022-09-25T05:16:22.049Z,16.20
2022-09-25T05:18:50.442Z,16.83
2022-09-25T05:21:18.614Z,13.40
2022-09-25T05:23:46.733Z,12.43
2022-09-25T05:26:15.118Z,16.03
2022-09-25T05:28:43.298Z,15.70
2022-09-25T05:31:11.668Z,15.27
2022-09-25T05:33:41.197Z,13.57
2022-09-25T05:36:10.277Z,14.90
2022-09-25T05:38:41.403Z,12.13
2022-09-25T05:41:11.747Z,15.07
2022-09-25T05:43:42.948Z,15.97
2022-09-25T05:46:12.776Z,14.87
2022-09-25T05:48:42.273Z,12.97
2022-09-25T05:51:11.647Z,13.43
2022-09-25T05:53:39.819Z,13.67
2022-09-25T05:56:09.068Z,15.17
2022-09-25T05:58:37.232Z,15.13
2022-09-25T06:01:07.641Z,11.77
2022-09-25T06:03:36.170Z,16.30
2022-09-25T06:06:06.460Z,17.67
2022-09-25T06:08:35.553Z,12.03
2022-09-25T06:11:05.197Z,14.23
2022-09-25T06:13:34.843Z,13.93
2022-09-25T06:16:05.420Z,14.93
2022-09-25T06:18:34.268Z,13.20
2022-09-25T06:21:06.551Z,15.00
2022-09-25T06:23:34.783Z,12.57
2022-09-25T06:26:03.860Z,14.57
2022-09-25T06:28:32.316Z,11.37
2022-09-25T06:31:02.430Z,13.23
2022-09-25T06:33:31.258Z,10.57
2022-09-25T06:36:00.670Z,12.93
2022-09-25T06:38:33.270Z,13.87
2022-09-25T06:41:01.978Z,12.53
2022-09-25T06:43:31.331Z,11.27
2022-09-25T06:46:04.021Z,12.37
2022-09-25T06:48:32.273Z,11.80
2022-09-25T06:51:02.679Z,14.47
2022-09-25T06:53:32.139Z,12.37
2022-09-25T06:56:00.872Z,9.53
2022-09-25T06:58:31.384Z,12.67
2022-09-25T07:00:59.809Z,12.47
2022-09-25T07:03:47.385Z,11.70
2022-09-25T07:06:18.890Z,11.90
2022-09-25T07:08:49.871Z,8.67
2022-09-25T07:11:20.886Z,13.33
2022-09-25T07:13:54.950Z,9.30
2022-09-25T07:16:26.061Z,9.77
2022-09-25T07:18:55.551Z,7.60
2022-09-25T07:21:25.041Z,9.37
2022-09-25T07:23:54.646Z,9.40
2022-09-25T07:26:25.735Z,9.03
2022-09-25T07:28:57.046Z,8.83
2022-09-25T07:31:28.107Z,9.20
2022-09-25T07:33:58.742Z,12.07
2022-09-25T07:36:26.926Z,10.83
2022-09-25T07:38:56.451Z,11.83
2022-09-25T07:41:25.312Z,12.60
2022-09-25T07:44:17.659Z,11.90
2022-09-25T07:46:46.386Z,9.17
2022-09-25T07:49:15.187Z,9.93
2022-09-25T07:51:43.374Z,9.33
2022-09-25T07:54:13.023Z,10.63
2022-09-25T07:56:41.330Z,9.73
2022-09-25T07:59:09.463Z,12.40
2022-09-25T08:01:43.320Z,11.13
2022-09-25T08:04:13.218Z,10.23
2022-09-25T08:06:41.455Z,12.43
2022-09-25T08:09:12.368Z,12.60
2022-09-25T08:11:40.690Z,9.83
2022-09-25T08:14:08.921Z,10.30
2022-09-25T08:16:37.045Z,10.13
2022-09-25T08:19:05.557Z,7.70
2022-09-25T08:21:35.748Z,10.43
2022-09-25T08:24:04.810Z,11.83
2022-09-25T08:26:34.449Z,8.97
2022-09-25T08:29:02.834Z,8.63
2022-09-25T08:31:31.111Z,12.03
2022-09-25T08:34:21.199Z,9.73
2022-09-25T08:36:51.058Z,10.13
2022-09-25T08:39:19.711Z,9.50
2022-09-25T08:41:53.721Z,8.33
2022-09-25T08:44:29.662Z,11.10
2022-09-25T08:47:21.157Z,10.33
2022-09-25T08:50:01.825Z,8.03
2022-09-25T08:52:32.432Z,11.50
2022-09-25T08:55:00.772Z,8.00
2022-09-25T08:57:40.335Z,9.47
2022-09-25T09:00:20.630Z,10.07
2022-09-25T09:02:54.732Z,9.30
2022-09-25T09:05:30.186Z,8.20
2022-09-25T09:08:03.527Z,11.43
2022-09-25T09:10:38.891Z,9.97
2022-09-25T09:13:28.621Z,6.60
2022-09-25T09:16:06.781Z,7.03
2022-09-25T09:18:41.919Z,10.17
2022-09-25T09:21:22.561Z,8.20
2022-09-25T09:24:03.732Z,9.83
2022-09-25T09:26:50.950Z,7.50
2022-09-25T09:29:39.242Z,8.63
2022-09-25T09:32:32.449Z,8.33
2022-09-25T09:35:19.068Z,7.90
2022-09-25T09:38:05.927Z,11.80
2022-09-25T09:40:53.963Z,8.87
2022-09-25T09:43:43.597Z,8.03
2022-09-25T09:46:28.521Z,8.60
2022-09-25T09:49:13.490Z,7.47
2022-09-25T09:51:49.195Z,8.90
2022-09-25T09:54:28.061Z,6.87
2022-09-25T09:57:00.633Z,8.57
2022-09-25T09:59:39.110Z,9.33
2022-09-25T10:02:27.703Z,10.93
2022-09-25T10:04:59.493Z,8.37
2022-09-25T10:07:32.420Z,7.60
2022-09-25T10:10:01.059Z,8.07
2022-09-25T10:12:34.603Z,11.47
2022-09-25T10:15:14.729Z,10.67
2022-09-25T10:17:44.703Z,9.70
2022-09-25T10:20:23.143Z,10.60
2022-09-25T10:22:57.313Z,11.67
2022-09-25T10:25:38.997Z,9.13
2022-09-25T10:28:28.415Z,8.77
2022-09-25T10:30:58.920Z,9.07
2022-09-25T10:33:32.864Z,10.50
2022-09-25T10:36:01.338Z,9.93
2022-09-25T10:38:42.148Z,12.33
2022-09-25T10:41:14.289Z,8.37
2022-09-25T10:43:55.003Z,9.40
2022-09-25T10:46:49.854Z,9.23
2022-09-25T10:49:38.724Z,8.73
2022-09-25T10:52:08.963Z,11.60
2022-09-25T10:54:44.482Z,8.00
2022-09-25T10:57:34.577Z,10.43
2022-09-25T11:00:05.710Z,9.90
2022-09-25T11:02:40.203Z,9.70
2022-09-25T11:05:19.884Z,8.77
2022-09-25T11:07:52.272Z,10.63
2022-09-25T11:10:23.638Z,11.47
2022-09-25T11:12:54.116Z,9.23
2022-09-25T11:15:26.718Z,9.53
2022-09-25T11:17:57.320Z,8.07
2022-09-25T11:20:30.657Z,10.60
2022-09-25T11:23:26.042Z,11.73
2022-09-25T11:26:07.169Z,8.47
2022-09-25T11:28:45.465Z,8.37
2022-09-25T11:31:22.773Z,14.80
2022-09-25T11:34:01.636Z,10.63
2022-09-25T11:36:40.991Z,8.30
2022-09-25T11:39:38.112Z,7.23
2022-09-25T11:42:15.937Z,10.63
2022-09-25T11:44:57.522Z,8.47
2022-09-25T11:47:33.248Z,10.77
2022-09-25T11:50:03.294Z,9.10
2022-09-25T11:52:41.162Z,6.83
2022-09-25T11:55:43.530Z,7.50
2022-09-25T11:58:44.415Z,7.57
2022-09-25T12:01:33.926Z,10.60
2022-09-25T12:04:47.390Z,7.10
2022-09-25T12:07:56.577Z,7.10
2022-09-25T12:10:42.980Z,6.67
2022-09-25T12:13:31.905Z,8.03
2022-09-25T12:16:14.864Z,6.80
2022-09-25T12:19:06.992Z,6.27
2022-09-25T12:21:47.839Z,6.77
2022-09-25T12:24:37.921Z,7.40
2022-09-25T12:27:20.969Z,5.67
2022-09-25T12:30:09.337Z,6.50
2022-09-25T12:33:03.988Z,8.83
2022-09-25T12:35:46.458Z,8.30
2022-09-25T12:38:29.103Z,7.13
2022-09-25T12:41:09.536Z,6.33
2022-09-25T12:43:47.975Z,8.27
2022-09-25T12:46:26.699Z,6.13
2022-09-25T12:49:03.107Z,6.40
2022-09-25T12:51:41.076Z,5.07
2022-09-25T12:54:24.904Z,5.83
2022-09-25T12:56:59.865Z,4.43
2022-09-25T12:59:41.500Z,5.00
2022-09-25T13:02:27.354Z,5.80
2022-09-25T13:05:07.150Z,5.63
2022-09-25T13:07:44.145Z,5.57
2022-09-25T13:10:32.099Z,6.00
2022-09-25T13:13:12.175Z,6.13
2022-09-25T13:15:43.245Z,5.03
2022-09-25T13:18:19.000Z,5.23
2022-09-25T13:20:54.257Z,6.00
2022-09-25T13:23:40.634Z,7.47
2022-09-25T13:26:16.332Z,5.83
2022-09-25T13:28:57.604Z,4.50
2022-09-25T13:31:29.502Z,6.20
2022-09-25T13:34:06.095Z,3.42
2022-09-25T13:36:46.790Z,4.13
2022-09-25T13:39:44.429Z,4.57
2022-09-25T13:42:23.865Z,4.32
2022-09-25T13:45:27.135Z,5.00
2022-09-25T13:48:07.174Z,3.63
2022-09-25T13:50:47.311Z,4.22
2022-09-25T13:53:49.993Z,5.17
2022-09-25T13:56:47.988Z,3.10
2022-09-25T13:59:39.568Z,4.90
2022-09-25T14:02:47.706Z,5.63
2022-09-25T14:05:21.823Z,4.40
2022-09-25T14:07:56.908Z,4.93
2022-09-25T14:10:27.172Z,5.80
2022-09-25T14:12:55.506Z,7.93
2022-09-25T14:15:33.026Z,4.97
2022-09-25T14:18:08.350Z,4.33
2022-09-25T14:20:41.936Z,5.27
2022-09-25T14:23:16.960Z,7.37
2022-09-25T14:25:46.962Z,4.40
2022-09-25T14:28:26.601Z,5.57
2022-09-25T14:31:17.307Z,4.63
2022-09-25T14:34:14.669Z,4.30
2022-09-25T14:37:03.756Z,4.07
2022-09-25T14:39:45.727Z,4.63
2022-09-25T14:42:58.364Z,4.17
2022-09-25T14:46:01.998Z,6.77
2022-09-25T14:48:38.556Z,3.87
2022-09-25T14:51:13.956Z,5.20
2022-09-25T14:53:50.540Z,3.57
2022-09-25T14:56:19.422Z,5.80
2022-09-25T14:58:51.525Z,3.57
2022-09-25T15:01:29.318Z,3.63
2022-09-25T15:04:02.743Z,3.37
2022-09-25T15:06:35.101Z,4.03
2022-09-25T15:09:28.037Z,5.13
2022-09-25T15:11:56.635Z,8.47
2022-09-25T15:14:24.706Z,4.07
2022-09-25T15:17:11.154Z,3.70
2022-09-25T15:19:45.815Z,6.93
2022-09-25T15:22:24.358Z,5.10
2022-09-25T15:24:58.300Z,5.23
2022-09-25T15:27:28.381Z,3.53
2022-09-25T15:29:58.402Z,5.43
2022-09-25T15:32:31.833Z,4.50
2022-09-25T15:35:19.412Z,4.23
2022-09-25T15:37:49.817Z,6.40
2022-09-25T15:40:28.342Z,4.27
2022-09-25T15:42:57.831Z,4.73
2022-09-25T15:45:48.450Z,4.83
2022-09-25T15:48:25.780Z,3.67
2022-09-25T15:50:55.629Z,5.97
2022-09-25T15:53:31.009Z,4.70
2022-09-25T15:56:13.730Z,5.07
2022-09-25T15:58:47.852Z,6.10
2022-09-25T16:01:39.225Z,6.50
2022-09-25T16:04:28.344Z,7.33
2022-09-25T16:06:56.529Z,6.10
2022-09-25T16:09:32.991Z,4.97
2022-09-25T16:12:23.857Z,5.20
2022-09-25T16:14:52.882Z,5.43
2022-09-25T16:17:32.975Z,4.10
2022-09-25T16:20:06.914Z,7.17
2022-09-25T16:22:47.349Z,9.80
2022-09-25T16:25:26.009Z,6.27
2022-09-25T16:28:01.337Z,5.60
2022-09-25T16:30:29.928Z,6.10
2022-09-25T16:33:06.325Z,6.43
2022-09-25T16:36:05.403Z,8.87
2022-09-25T16:38:29.950Z,9.70
2022-09-25T16:41:08.651Z,6.17
2022-09-25T16:43:39.490Z,6.00
2022-09-25T16:46:17.438Z,8.00
2022-09-25T16:49:00.981Z,5.60
2022-09-25T16:51:32.136Z,7.30
2022-09-25T16:54:01.297Z,6.03
2022-09-25T16:56:33.578Z,5.17
2022-09-25T16:59:01.808Z,7.17
2022-09-25T17:01:30.280Z,7.07
2022-09-25T17:03:59.910Z,6.00
2022-09-25T17:06:31.341Z,8.73
2022-09-25T17:31:32.001Z,17.03
2022-09-25T17:34:00.286Z,25.17
2022-09-25T17:36:28.324Z,39.77
2022-09-25T17:38:56.523Z,161.07
2022-09-25T17:41:33.407Z,139.67
2022-09-25T17:44:03.327Z,139.53
2022-09-25T17:46:34.558Z,76.63
2022-09-25T17:49:03.059Z,23.53
2022-09-25T17:51:31.877Z,27.93
2022-09-25T17:54:02.237Z,25.10
2022-09-25T17:56:31.049Z,20.23
2022-09-25T17:58:59.386Z,10.60
2022-09-25T18:01:33.138Z,10.50
2022-09-25T18:04:19.931Z,13.10
2022-09-25T18:06:48.588Z,20.37
2022-09-25T18:09:16.968Z,113.67
2022-09-25T18:11:45.305Z,176.90
2022-09-25T18:14:15.616Z,272.37
2022-09-25T18:16:45.691Z,327.27
2022-09-25T18:19:38.673Z,378.37
2022-09-25T18:22:21.462Z,147.27
2022-09-25T18:24:54.259Z,71.13
2022-09-25T18:27:22.362Z,67.60
2022-09-25T18:29:50.944Z,40.30
2022-09-25T18:32:19.078Z,29.63
2022-09-25T18:34:48.599Z,29.13
2022-09-25T18:37:16.806Z,42.73
2022-09-25T18:39:46.103Z,45.57
2022-09-25T18:42:14.204Z,31.03
2022-09-25T18:44:43.253Z,28.93
2022-09-25T18:47:12.192Z,29.33
2022-09-25T18:49:41.071Z,33.27
2022-09-25T18:52:11.456Z,39.77
2022-09-25T18:54:41.947Z,36.20
2022-09-25T18:57:10.726Z,21.77
2022-09-25T18:59:39.459Z,25.77
2022-09-25T19:02:15.191Z,19.40
2022-09-25T19:04:43.337Z,25.27
2022-09-25T19:07:12.675Z,29.87
2022-09-25T19:09:40.692Z,95.47
2022-09-25T19:12:08.976Z,314.30
2022-09-25T19:14:37.580Z,234.57
2022-09-25T19:17:06.194Z,150.00
2022-09-25T19:19:35.568Z,70.23
2022-09-25T19:22:03.623Z,186.40
2022-09-25T19:24:37.500Z,198.67
2022-09-25T19:27:06.868Z,159.37
2022-09-25T19:29:36.372Z,60.27
2022-09-25T19:32:06.275Z,49.57
2022-09-25T19:34:35.019Z,39.20
2022-09-25T19:37:04.158Z,68.90
2022-09-25T19:39:54.025Z,77.83
2022-09-25T19:42:22.249Z,65.43
2022-09-25T19:44:50.660Z,49.00
2022-09-25T19:47:18.674Z,33.23
2022-09-25T19:49:46.692Z,13.47
2022-09-25T19:52:14.668Z,47.20
2022-09-25T19:54:44.123Z,29.50
2022-09-25T19:57:12.399Z,28.27
2022-09-25T19:59:40.480Z,32.90
2022-09-25T20:02:10.649Z,57.20
2022-09-25T20:04:38.848Z,82.67
2022-09-25T20:07:06.895Z,74.50
2022-09-25T20:09:39.751Z,97.77
2022-09-25T20:12:09.495Z,75.40
2022-09-25T20:14:37.994Z,79.33
2022-09-25T20:17:10.062Z,87.57
2022-09-25T20:19:38.591Z,83.70
2022-09-25T20:22:06.674Z,67.73
2022-09-25T20:24:35.079Z,142.67
2022-09-25T20:27:03.071Z,123.20
2022-09-25T20:29:32.672Z,139.70
2022-09-25T20:32:00.854Z,144.00
2022-09-25T20:34:28.946Z,179.97
2022-09-25T20:36:57.058Z,198.83
2022-09-25T20:39:27.490Z,192.83
2022-09-25T20:41:59.133Z,73.50
2022-09-25T20:44:27.128Z,264.17
2022-09-25T20:46:56.459Z,244.50
2022-09-25T20:49:24.502Z,163.33
2022-09-25T20:51:53.345Z,203.33
2022-09-25T20:54:26.688Z,165.47
2022-09-25T20:56:54.945Z,122.47
2022-09-25T20:59:23.046Z,88.13
2022-09-25T21:01:51.220Z,62.63
2022-09-25T21:04:20.899Z,56.70
2022-09-25T21:06:48.900Z,45.20
2022-09-25T21:09:22.004Z,46.80
2022-09-25T21:11:51.269Z,39.73
2022-09-25T21:14:22.101Z,46.80
2022-09-25T21:16:51.516Z,42.77
2022-09-25T21:19:23.206Z,47.50
2022-09-25T21:21:51.893Z,34.30
2022-09-25T21:24:22.684Z,41.40
2022-09-25T21:26:51.334Z,23.97
2022-09-25T21:29:19.963Z,22.93
2022-09-25T21:31:50.636Z,38.20
2022-09-25T21:34:20.791Z,31.63
2022-09-25T21:36:49.649Z,29.73
2022-09-25T21:39:20.843Z,18.23
2022-09-25T21:41:50.299Z,28.83
2022-09-25T21:44:21.304Z,18.47
2022-09-25T21:46:49.304Z,20.77
2022-09-25T21:49:21.928Z,21.67
2022-09-25T21:51:50.911Z,20.13
2022-09-25T21:54:19.656Z,22.93
2022-09-25T21:56:48.625Z,27.10
2022-09-25T21:59:17.165Z,64.07
2022-09-25T22:01:45.455Z,43.10
2022-09-25T22:04:15.723Z,40.90
2022-09-25T22:06:47.978Z,39.60
2022-09-25T22:09:19.374Z,27.47
2022-09-25T22:11:48.966Z,28.50
2022-09-25T22:14:18.530Z,27.23
2022-09-25T22:16:49.966Z,16.67
2022-09-25T22:19:22.651Z,21.40
2022-09-25T22:21:54.568Z,14.73
2022-09-25T22:24:23.408Z,15.73
2022-09-25T22:26:53.366Z,13.57
2022-09-25T22:29:22.977Z,13.37
2022-09-25T22:31:51.721Z,9.80
2022-09-25T22:34:23.501Z,10.53
2022-09-25T22:36:59.131Z,10.90
2022-09-25T22:39:29.602Z,10.50
2022-09-25T22:41:58.224Z,9.93
2022-09-25T22:44:27.070Z,9.13
2022-09-25T22:46:55.410Z,9.10
2022-09-25T22:49:23.651Z,9.30
2022-09-25T22:51:53.050Z,9.20
2022-09-25T22:54:21.574Z,9.07
2022-09-25T22:56:49.602Z,9.13
2022-09-25T22:59:18.814Z,8.17
2022-09-25T23:01:50.907Z,10.37
2022-09-25T23:04:22.033Z,9.00
2022-09-25T23:06:52.272Z,9.40
2022-09-25T23:09:24.898Z,11.90
2022-09-25T23:11:54.152Z,10.30
2022-09-25T23:14:26.249Z,8.50
2022-09-25T23:16:56.016Z,8.90
2022-09-25T23:19:25.195Z,8.77
2022-09-25T23:21:55.706Z,8.13
2022-09-25T23:24:24.684Z,8.53
2022-09-25T23:26:54.998Z,9.47
2022-09-25T23:29:23.877Z,18.70
2022-09-25T23:31:53.118Z,8.93
2022-09-25T23:34:21.372Z,8.33
2022-09-25T23:36:49.493Z,9.03
2022-09-25T23:39:21.011Z,59.67
2022-09-25T23:41:49.427Z,15.10
2022-09-25T23:44:17.852Z,8.27
2022-09-25T23:46:46.309Z,12.50
2022-09-25T23:49:15.408Z,8.20
2022-09-25T23:51:43.515Z,7.93
2022-09-25T23:54:12.879Z,9.73
2022-09-25T23:56:42.670Z,8.57
2022-09-25T23:59:13.460Z,11.00
